Time;durP1;ratioP1;P1;durP2;ratioP2;P2;SDS_P1;SDS_P2;PMS_P1;PMS_P2;Temp;Humidity;BMP_temperature;BMP_pressure;BME280_temperature;BME280_humidity;BME280_pressure;Samples;Min_cycle;Max_cycle;Signal;HPM_P1;HPM_P2
2022/03/10 00:02:10;;;;;;;21.88;11.32;;;8.20;47.10;;;;;;5068742;28;20024;-81
2022/03/10 00:04:36;;;;;;;22.10;11.05;;;8.20;47.40;;;;;;5052190;28;20077;-80
2022/03/10 00:07:03;;;;;;;23.17;10.93;;;8.30;47.30;;;;;;5067600;28;20036;-80
2022/03/10 00:09:33;;;;;;;22.33;11.27;;;8.30;47.40;;;;;;5061563;28;20017;-80
2022/03/10 00:12:00;;;;;;;19.60;10.67;;;8.10;48.20;;;;;;5051782;28;20131;-80
2022/03/10 00:14:26;;;;;;;28.23;13.57;;;8.10;47.90;;;;;;5073621;28;20357;-80
2022/03/10 00:16:52;;;;;;;22.80;11.30;;;7.90;48.80;;;;;;5073544;28;20060;-81
2022/03/10 00:19:18;;;;;;;20.52;11.80;;;7.70;49.00;;;;;;5055822;28;20032;-80
2022/03/10 00:21:45;;;;;;;25.77;12.32;;;7.60;49.10;;;;;;5073684;28;20021;-81
2022/03/10 00:24:11;;;;;;;23.63;12.25;;;7.40;49.70;;;;;;5038952;28;20116;-81
2022/03/10 00:26:37;;;;;;;23.23;11.85;;;7.60;49.90;;;;;;5053444;28;20103;-80
2022/03/10 00:29:06;;;;;;;25.48;11.98;;;7.70;49.50;;;;;;5035860;28;20086;-80
2022/03/10 00:31:32;;;;;;;19.80;11.50;;;7.70;49.70;;;;;;5041919;28;20095;-80
2022/03/10 00:33:58;;;;;;;24.17;12.30;;;7.70;49.40;;;;;;5055435;28;20024;-80
2022/03/10 00:36:24;;;;;;;22.95;11.45;;;7.80;49.80;;;;;;5055236;28;20044;-80
2022/03/10 00:38:51;;;;;;;35.47;18.73;;;8.10;49.40;;;;;;5055345;28;20021;-79
2022/03/10 00:41:17;;;;;;;23.55;11.65;;;8.30;48.70;;;;;;5054924;28;20028;-81
2022/03/10 00:43:43;;;;;;;22.40;11.50;;;8.00;49.00;;;;;;5035434;28;20503;-81
2022/03/10 00:46:09;;;;;;;25.65;12.18;;;7.60;49.70;;;;;;5039969;28;20024;-81
2022/03/10 00:48:36;;;;;;;24.77;12.38;;;7.70;50.00;;;;;;5055164;28;20036;-81
2022/03/10 00:51:03;;;;;;;23.88;11.52;;;8.10;49.20;;;;;;5055458;28;20127;-80
2022/03/10 00:53:29;;;;;;;24.38;12.60;;;8.10;48.80;;;;;;5055345;28;20048;-80
2022/03/10 00:55:54;;;;;;;22.15;12.80;;;8.20;49.10;;;;;;5053884;28;20407;-80
2022/03/10 00:58:20;;;;;;;29.40;15.60;;;7.80;51.10;;;;;;5055004;28;20067;-81
2022/03/10 01:00:46;;;;;;;27.05;13.98;;;7.40;50.50;;;;;;5055399;28;20032;-81
2022/03/10 01:03:12;;;;;;;28.50;14.10;;;6.90;50.40;;;;;;5073438;28;20028;-80
2022/03/10 01:05:37;;;;;;;28.45;14.68;;;6.60;50.90;;;;;;5055017;28;20021;-80
2022/03/10 01:08:03;;;;;;;29.42;14.55;;;6.90;50.90;;;;;;5053492;28;20033;-80
2022/03/10 01:10:29;;;;;;;27.80;14.18;;;7.30;50.20;;;;;;5034841;28;20082;-81
2022/03/10 01:12:55;;;;;;;25.90;14.18;;;7.80;49.40;;;;;;5053113;28;20025;-81
2022/03/10 01:15:26;;;;;;;24.65;14.02;;;8.20;48.10;;;;;;5052752;28;20028;-81
2022/03/10 01:17:52;;;;;;;26.17;13.52;;;8.60;47.30;;;;;;5051902;28;20044;-80
2022/03/10 01:20:22;;;;;;;25.27;14.18;;;8.50;47.40;;;;;;5051479;28;20025;-80
2022/03/10 01:22:48;;;;;;;25.92;14.23;;;8.30;47.20;;;;;;5051683;28;20021;-80
2022/03/10 01:25:15;;;;;;;25.33;13.50;;;8.10;47.60;;;;;;5051473;28;20021;-80
2022/03/10 01:27:41;;;;;;;28.67;14.05;;;7.60;48.40;;;;;;5070822;28;20033;-80
2022/03/10 01:30:08;;;;;;;25.92;13.80;;;7.20;48.90;;;;;;5072910;28;20512;-79
2022/03/10 01:32:35;;;;;;;28.15;13.52;;;7.00;49.30;;;;;;5055272;28;20428;-81
2022/03/10 01:35:05;;;;;;;29.95;14.00;;;7.20;49.00;;;;;;5073069;28;20031;-80
2022/03/10 01:37:32;;;;;;;;;;;7.30;48.80;;;;;;5038554;28;20044;-80
2022/03/10 01:39:58;;;;;;;26.98;13.43;;;7.50;48.50;;;;;;5034892;28;19912;-80
2022/03/10 01:42:24;;;;;;;26.67;14.25;;;7.60;48.20;;;;;;5035103;28;20021;-79
2022/03/10 01:44:54;;;;;;;27.67;14.07;;;7.60;48.20;;;;;;5035015;28;20033;-81
2022/03/10 01:47:19;;;;;;;31.80;14.02;;;7.80;48.00;;;;;;5049145;28;20028;-80
2022/03/10 01:49:45;;;;;;;30.02;14.70;;;8.10;47.40;;;;;;5054898;28;20387;-80
2022/03/10 01:52:12;;;;;;;24.45;13.48;;;8.10;47.30;;;;;;5055125;28;20434;-80
2022/03/10 01:54:39;;;;;;;26.05;14.23;;;7.90;47.60;;;;;;5072613;28;20025;-81
2022/03/10 01:57:05;;;;;;;29.90;14.40;;;7.70;47.90;;;;;;5042560;28;20072;-82
2022/03/10 01:59:31;;;;;;;31.35;14.93;;;7.30;48.70;;;;;;5035614;28;20124;-80
2022/03/10 02:01:57;;;;;;;29.85;14.85;;;7.00;49.30;;;;;;5038414;28;20041;-80
2022/03/10 02:04:22;;;;;;;24.85;14.00;;;6.70;49.80;;;;;;5056216;28;20025;-80
2022/03/10 02:06:48;;;;;;;30.17;15.30;;;6.60;50.20;;;;;;5045452;28;20024;-81
2022/03/10 02:11:58;;;;;;;26.95;15.10;;;6.40;51.20;;;;;;5076694;28;20036;-80
2022/03/10 02:17:20;;;;;;;28.08;15.48;;;7.00;51.00;;;;;;5065823;28;20090;-81
2022/03/10 02:19:57;;;;;;;29.48;15.88;;;7.60;50.20;;;;;;5037965;28;20025;-81
2022/03/10 02:22:25;;;;;;;29.13;14.95;;;8.20;49.40;;;;;;5038100;28;20123;-81
2022/03/10 02:24:51;;;;;;;30.65;15.88;;;8.70;48.30;;;;;;5037875;28;20051;-81
2022/03/10 02:27:22;;;;;;;29.15;15.30;;;8.90;47.70;;;;;;5066493;28;20029;-82
2022/03/10 02:29:57;;;;;;;29.23;15.85;;;9.10;47.30;;;;;;5057594;28;20353;-81
2022/03/10 02:32:23;;;;;;;28.88;15.32;;;9.20;47.30;;;;;;5075912;28;20492;-82
2022/03/10 02:34:49;;;;;;;25.42;15.23;;;9.20;47.20;;;;;;5057577;28;20025;-82
2022/03/10 02:37:16;;;;;;;32.53;16.27;;;9.30;47.10;;;;;;5057418;28;20491;-79
2022/03/10 02:39:43;;;;;;;33.72;16.77;;;9.60;46.70;;;;;;5058305;28;20063;-81
2022/03/10 02:42:10;;;;;;;30.00;16.80;;;9.50;46.90;;;;;;5046092;28;20028;-82
2022/03/10 02:44:48;;;;;;;32.60;16.55;;;9.40;47.30;;;;;;5075649;28;20025;-82
2022/03/10 02:47:15;;;;;;;27.73;15.52;;;9.50;47.30;;;;;;5057565;28;20487;-81
2022/03/10 02:49:42;;;;;;;31.40;16.65;;;9.20;47.60;;;;;;5075209;28;20017;-81
2022/03/10 02:52:09;;;;;;;27.92;15.27;;;8.40;49.30;;;;;;5042788;28;20124;-81
2022/03/10 02:54:35;;;;;;;33.50;17.38;;;8.40;50.50;;;;;;5071032;28;20028;-81
2022/03/10 02:57:01;;;;;;;32.55;17.05;;;8.40;50.60;;;;;;5057736;28;20041;-81
2022/03/10 02:59:26;;;;;;;33.63;18.02;;;8.20;51.10;;;;;;5057396;28;20027;-81
2022/03/10 03:01:52;;;;;;;30.65;17.23;;;8.70;50.90;;;;;;5045191;28;20033;-81
2022/03/10 03:04:18;;;;;;;33.20;17.05;;;9.10;49.70;;;;;;5037541;28;20384;-81
2022/03/10 03:06:44;;;;;;;28.40;15.77;;;9.50;48.60;;;;;;5037137;28;20021;-81
2022/03/10 03:09:10;;;;;;;29.58;15.38;;;9.40;48.30;;;;;;5037321;28;20021;-82
2022/03/10 03:11:35;;;;;;;30.88;16.25;;;9.40;48.70;;;;;;5046472;28;20028;-81
2022/03/10 03:14:01;;;;;;;28.17;15.13;;;9.50;48.60;;;;;;5056929;28;20032;-81
2022/03/10 03:16:28;;;;;;;30.13;16.35;;;9.50;48.50;;;;;;5056838;28;20036;-81
2022/03/10 03:18:54;;;;;;;30.33;16.38;;;9.00;49.90;;;;;;5074796;28;20050;-81
2022/03/10 03:21:20;;;;;;;29.98;16.33;;;8.90;50.40;;;;;;5039085;28;20040;-80
2022/03/10 03:23:47;;;;;;;29.67;15.50;;;9.20;50.20;;;;;;5036924;28;20021;-80
2022/03/10 03:26:14;;;;;;;29.60;15.57;;;9.50;49.40;;;;;;5036985;28;20533;-81
2022/03/10 03:28:40;;;;;;;30.45;16.17;;;9.50;48.50;;;;;;5036872;28;20088;-81
2022/03/10 03:31:06;;;;;;;31.38;17.17;;;9.50;48.50;;;;;;5069546;28;20383;-81
2022/03/10 03:33:32;;;;;;;26.27;15.07;;;9.70;48.30;;;;;;5074395;28;20159;-81
2022/03/10 03:35:58;;;;;;;31.15;16.60;;;9.80;48.30;;;;;;5061615;28;20076;-80
2022/03/10 03:38:24;;;;;;;30.08;16.60;;;9.50;48.60;;;;;;5054367;28;20056;-81
2022/03/10 03:40:50;;;;;;;29.63;16.75;;;9.40;49.10;;;;;;5049170;28;20036;-80
2022/03/10 03:43:16;;;;;;;32.03;16.30;;;9.60;49.00;;;;;;5056254;28;20029;-81
2022/03/10 03:45:41;;;;;;;32.92;17.10;;;9.60;48.70;;;;;;5046592;28;20021;-81
2022/03/10 03:48:07;;;;;;;30.67;15.82;;;9.70;48.60;;;;;;5054181;28;20021;-81
2022/03/10 03:50:33;;;;;;;28.80;16.23;;;10.00;48.50;;;;;;5045172;28;20086;-82
2022/03/10 03:52:58;;;;;;;27.77;16.20;;;10.20;48.10;;;;;;5055933;28;20063;-80
2022/03/10 03:55:24;;;;;;;28.42;16.15;;;10.30;48.30;;;;;;5056438;28;20021;-81
2022/03/10 03:57:50;;;;;;;32.85;16.77;;;10.40;48.10;;;;;;5074443;28;20033;-80
2022/03/10 04:00:16;;;;;;;31.00;16.55;;;10.60;48.60;;;;;;5049370;28;20020;-80
2022/03/10 04:02:42;;;;;;;30.63;16.17;;;10.30;48.20;;;;;;5053770;28;20400;-80
2022/03/10 04:05:08;;;;;;;32.42;16.95;;;10.20;48.30;;;;;;5036082;28;20021;-79
2022/03/10 04:07:35;;;;;;;26.88;15.23;;;10.10;48.20;;;;;;5054910;28;20086;-80
2022/03/10 04:10:01;;;;;;;28.05;16.98;;;9.70;49.30;;;;;;5053918;28;20033;-80
2022/03/10 04:12:26;;;;;;;27.92;16.23;;;9.60;50.00;;;;;;5053596;28;20033;-80
2022/03/10 04:14:52;;;;;;;30.83;16.85;;;9.50;50.00;;;;;;5053531;28;20036;-81
2022/03/10 04:17:18;;;;;;;28.25;15.70;;;9.60;50.20;;;;;;5046491;28;20082;-81
2022/03/10 04:19:43;;;;;;;30.00;16.52;;;9.90;49.60;;;;;;5055658;28;20028;-81
2022/03/10 04:22:09;;;;;;;30.25;16.80;;;10.10;49.30;;;;;;5073117;28;20060;-81
2022/03/10 04:24:35;;;;;;;29.27;16.27;;;10.40;48.60;;;;;;5073466;28;20020;-80
2022/03/10 04:27:01;;;;;;;31.65;17.17;;;10.50;48.30;;;;;;5054691;28;20028;-80
2022/03/10 04:29:26;;;;;;;34.25;19.08;;;10.50;48.40;;;;;;5055647;28;20032;-81
2022/03/10 04:31:52;;;;;;;39.85;21.27;;;10.70;48.30;;;;;;5073922;28;20391;-81
2022/03/10 04:34:18;;;;;;;28.30;17.77;;;10.80;48.10;;;;;;5071744;28;20025;-81
2022/03/10 04:36:44;;;;;;;26.75;16.55;;;10.40;48.30;;;;;;5055501;28;20044;-81
2022/03/10 04:39:09;;;;;;;33.17;17.13;;;10.40;48.40;;;;;;5073161;28;20471;-81
2022/03/10 04:41:35;;;;;;;31.73;18.42;;;10.30;48.80;;;;;;5055629;28;20487;-81
2022/03/10 04:44:01;;;;;;;31.70;18.42;;;10.40;48.70;;;;;;5045955;28;20028;-81
2022/03/10 04:46:27;;;;;;;30.23;18.17;;;10.40;48.60;;;;;;5035633;28;20487;-81
2022/03/10 04:48:53;;;;;;;32.38;18.63;;;10.60;48.30;;;;;;5035382;28;20039;-81
2022/03/10 04:51:20;;;;;;;33.28;18.15;;;10.30;49.20;;;;;;5035437;28;20021;-81
2022/03/10 04:53:46;;;;;;;32.35;17.80;;;10.30;49.50;;;;;;5042458;28;20479;-81
2022/03/10 04:56:12;;;;;;;32.38;16.90;;;10.40;49.20;;;;;;5073215;28;20048;-82
2022/03/10 04:58:38;;;;;;;32.65;18.17;;;10.30;48.90;;;;;;5055572;28;20021;-81
2022/03/10 05:01:04;;;;;;;33.17;19.92;;;10.40;49.10;;;;;;5055413;28;20031;-81
2022/03/10 05:03:32;;;;;;;35.95;19.08;;;10.30;50.10;;;;;;5053402;28;20028;-81
2022/03/10 05:05:58;;;;;;;27.63;14.13;;;9.60;50.60;;;;;;5055528;28;20021;-80
2022/03/10 05:08:24;;;;;;;26.35;14.27;;;8.10;51.80;;;;;;5073170;28;20074;-80
2022/03/10 05:10:49;;;;;;;24.55;14.05;;;7.70;53.10;;;;;;5055297;28;20032;-82
2022/03/10 05:13:15;;;;;;;29.38;17.63;;;7.90;51.80;;;;;;5039431;28;20029;-80
2022/03/10 05:15:41;;;;;;;15.95;8.77;;;8.50;50.70;;;;;;5035259;28;20091;-80
2022/03/10 05:18:06;;;;;;;19.20;11.98;;;8.80;48.50;;;;;;5052986;28;20082;-80
2022/03/10 05:20:32;;;;;;;17.27;9.65;;;8.90;48.20;;;;;;5034682;28;20025;-80
2022/03/10 05:23:00;;;;;;;14.38;8.35;;;8.70;48.10;;;;;;5053135;28;20033;-80
2022/03/10 05:25:38;;;;;;;17.30;8.75;;;8.90;48.00;;;;;;5053700;28;20032;-80
2022/03/10 05:28:07;;;;;;;18.73;10.60;;;9.20;48.20;;;;;;5049758;28;20357;-81
2022/03/10 05:30:34;;;;;;;16.25;8.95;;;9.80;47.30;;;;;;5054961;28;20071;-82
2022/03/10 05:32:59;;;;;;;16.23;8.70;;;10.00;46.50;;;;;;5054413;28;20473;-82
2022/03/10 05:35:29;;;;;;;13.20;7.72;;;10.30;45.70;;;;;;5067356;28;20029;-84
2022/03/10 05:37:55;;;;;;;12.35;6.95;;;10.40;45.20;;;;;;5048027;28;20472;-79
2022/03/10 05:40:21;;;;;;;13.55;6.40;;;10.40;44.80;;;;;;5057579;28;20601;-80
2022/03/10 05:42:48;;;;;;;11.00;6.30;;;10.40;44.10;;;;;;5058159;28;20387;-79
2022/03/10 05:45:19;;;;;;;10.80;6.40;;;10.30;43.40;;;;;;5074535;28;20028;-82
2022/03/10 05:47:46;;;;;;;12.50;6.60;;;10.10;43.90;;;;;;5057135;28;20021;-80
2022/03/10 05:50:12;;;;;;;11.50;6.15;;;10.00;43.70;;;;;;5074792;28;20072;-82
2022/03/10 05:52:37;;;;;;;10.98;6.00;;;9.90;43.60;;;;;;5056900;28;20028;-82
2022/03/10 05:55:07;;;;;;;10.75;6.57;;;9.70;43.80;;;;;;5056911;28;20063;-85
2022/03/10 05:57:33;;;;;;;26.60;10.57;;;10.00;43.90;;;;;;5057037;28;20040;-80
2022/03/10 05:59:59;;;;;;;18.98;9.95;;;10.00;43.40;;;;;;5075224;28;20479;-82
2022/03/10 06:02:25;;;;;;;14.95;7.25;;;10.20;43.70;;;;;;5073967;28;20035;-80
2022/03/10 06:04:50;;;;;;;11.23;6.30;;;10.20;43.20;;;;;;5056173;28;20021;-80
2022/03/10 06:07:16;;;;;;;11.73;5.97;;;10.10;42.80;;;;;;5056759;28;20395;-78
2022/03/10 06:09:42;;;;;;;11.10;6.28;;;10.00;42.80;;;;;;5057220;28;20108;-79
2022/03/10 06:12:09;;;;;;;10.70;6.10;;;10.30;42.60;;;;;;5056596;28;20021;-80
2022/03/10 06:14:36;;;;;;;14.43;7.63;;;10.60;42.30;;;;;;5056390;28;20112;-82
2022/03/10 06:17:02;;;;;;;14.05;7.45;;;10.50;42.30;;;;;;5055884;28;20036;-81
2022/03/10 06:19:28;;;;;;;11.93;6.43;;;10.50;42.70;;;;;;5056495;28;20028;-79
2022/03/10 06:21:54;;;;;;;11.68;6.30;;;10.60;42.80;;;;;;5057505;28;20386;-79
2022/03/10 06:24:19;;;;;;;11.60;6.00;;;10.70;42.60;;;;;;5075666;28;20013;-80
2022/03/10 06:26:45;;;;;;;11.18;5.72;;;10.80;42.00;;;;;;5055664;28;20035;-80
2022/03/10 06:29:13;;;;;;;10.95;6.20;;;10.40;41.80;;;;;;5073075;28;20021;-81
2022/03/10 06:31:39;;;;;;;9.73;5.95;;;10.00;42.20;;;;;;5057357;28;20035;-80
2022/03/10 06:34:05;;;;;;;11.25;6.65;;;9.90;43.20;;;;;;5075193;28;20021;-80
2022/03/10 06:36:31;;;;;;;12.23;6.75;;;10.10;42.50;;;;;;5074961;28;20075;-79
2022/03/10 06:38:57;;;;;;;12.63;6.93;;;10.10;42.60;;;;;;5074301;28;20021;-79
2022/03/10 06:41:22;;;;;;;11.20;6.25;;;10.20;42.80;;;;;;5074651;28;20033;-78
2022/03/10 06:43:48;;;;;;;9.55;5.93;;;10.50;42.50;;;;;;5056972;28;20016;-80
2022/03/10 06:46:14;;;;;;;17.05;8.50;;;11.00;42.40;;;;;;5073581;28;20025;-79
2022/03/10 06:48:40;;;;;;;12.23;6.45;;;11.30;41.50;;;;;;5073781;28;20021;-80
2022/03/10 06:51:06;;;;;;;13.05;7.30;;;11.70;41.10;;;;;;5056472;28;20055;-78
2022/03/10 06:53:32;;;;;;;12.95;7.78;;;11.90;40.90;;;;;;5059593;28;20028;-79
2022/03/10 06:55:58;;;;;;;18.30;9.15;;;11.70;40.30;;;;;;5074620;28;20074;-78
2022/03/10 06:58:24;;;;;;;14.30;6.50;;;11.20;40.90;;;;;;5066519;28;20467;-81
2022/03/10 07:00:50;;;;;;;16.08;10.13;;;11.20;41.40;;;;;;5074790;28;20045;-79
2022/03/10 07:03:15;;;;;;;11.32;6.65;;;11.00;41.00;;;;;;5074341;28;20039;-79
2022/03/10 07:05:41;;;;;;;10.95;6.45;;;11.10;41.50;;;;;;5056369;28;20036;-79
2022/03/10 07:08:07;;;;;;;10.25;5.80;;;11.60;41.00;;;;;;5074388;28;20029;-80
2022/03/10 07:10:33;;;;;;;10.50;5.78;;;11.70;39.20;;;;;;5056395;28;20029;-80
2022/03/10 07:12:59;;;;;;;8.95;5.05;;;11.60;39.60;;;;;;5056744;28;20081;-80
2022/03/10 07:15:25;;;;;;;9.05;5.18;;;11.50;39.10;;;;;;5056290;28;20056;-81
2022/03/10 07:17:50;;;;;;;7.88;4.40;;;10.90;39.80;;;;;;5056300;28;20071;-81
2022/03/10 07:20:18;;;;;;;9.10;4.53;;;10.70;38.70;;;;;;5056305;28;20472;-81
2022/03/10 07:22:45;;;;;;;8.15;4.70;;;10.70;38.90;;;;;;5074169;28;20099;-81
2022/03/10 07:25:11;;;;;;;8.48;4.50;;;10.70;38.50;;;;;;5074014;28;20077;-81
2022/03/10 07:27:37;;;;;;;8.75;4.80;;;10.80;38.40;;;;;;5056751;28;20024;-81
2022/03/10 07:30:04;;;;;;;8.93;4.60;;;10.70;38.20;;;;;;5073651;28;20111;-82
2022/03/10 07:32:30;;;;;;;8.55;4.82;;;10.40;38.20;;;;;;5074163;28;20033;-81
2022/03/10 07:34:56;;;;;;;8.38;4.65;;;10.20;38.70;;;;;;5056391;28;20032;-82
2022/03/10 07:37:21;;;;;;;10.98;4.40;;;10.00;39.10;;;;;;5073986;28;20044;-80
2022/03/10 07:39:47;;;;;;;8.43;4.40;;;9.90;39.20;;;;;;5074130;28;20025;-81
2022/03/10 07:42:13;;;;;;;7.68;4.20;;;10.00;38.80;;;;;;5056156;28;20033;-81
2022/03/10 07:44:39;;;;;;;7.57;4.40;;;10.10;38.40;;;;;;5055815;28;20086;-80
2022/03/10 07:47:05;;;;;;;8.40;4.43;;;10.50;39.10;;;;;;5073752;28;20078;-83
2022/03/10 07:49:32;;;;;;;6.90;4.30;;;11.00;38.50;;;;;;5073249;28;20063;-80
2022/03/10 07:51:59;;;;;;;7.75;4.30;;;10.90;38.50;;;;;;5055701;28;20050;-79
2022/03/10 07:54:25;;;;;;;7.30;4.22;;;11.20;38.10;;;;;;5055828;28;20032;-81
2022/03/10 07:56:51;;;;;;;8.43;4.70;;;11.10;37.00;;;;;;5055207;28;20028;-81
2022/03/10 07:59:17;;;;;;;8.02;4.43;;;11.10;38.10;;;;;;5055337;28;20028;-80
2022/03/10 08:01:42;;;;;;;6.55;3.97;;;11.40;37.70;;;;;;5073460;28;20346;-80
2022/03/10 08:04:08;;;;;;;9.13;5.30;;;11.60;37.40;;;;;;5073691;28;20024;-81
2022/03/10 08:06:34;;;;;;;9.88;5.43;;;12.90;36.40;;;;;;5055416;28;20032;-80
2022/03/10 08:09:02;;;;;;;8.95;5.13;;;13.50;35.40;;;;;;5055549;28;20032;-82
2022/03/10 08:11:28;;;;;;;9.88;5.50;;;14.60;34.70;;;;;;5055568;28;20473;-81
2022/03/10 08:13:54;;;;;;;7.88;4.85;;;14.80;34.10;;;;;;5073034;28;20024;-81
2022/03/10 08:16:20;;;;;;;10.93;5.65;;;15.30;34.30;;;;;;5055016;28;20127;-81
2022/03/10 08:18:47;;;;;;;11.00;6.07;;;15.90;33.40;;;;;;5055933;28;20103;-81
2022/03/10 08:21:12;;;;;;;9.98;6.15;;;15.10;34.50;;;;;;5055362;28;20028;-82
2022/03/10 08:23:38;;;;;;;8.50;5.45;;;15.80;34.80;;;;;;5055140;28;20028;-81
2022/03/10 08:26:04;;;;;;;8.15;5.20;;;16.10;33.30;;;;;;5055366;28;20471;-81
2022/03/10 08:28:29;;;;;;;9.13;5.05;;;16.70;33.40;;;;;;5073273;28;20070;-82
2022/03/10 08:30:56;;;;;;;8.18;4.28;;;18.30;32.10;;;;;;5055337;28;20066;-85
2022/03/10 08:33:22;;;;;;;7.43;4.70;;;19.00;31.10;;;;;;5055344;28;20048;-80
2022/03/10 08:35:47;;;;;;;6.13;3.80;;;18.70;30.30;;;;;;5051789;28;20136;-81
2022/03/10 08:38:13;;;;;;;7.25;4.60;;;18.30;30.60;;;;;;5051912;28;20128;-82
2022/03/10 08:40:39;;;;;;;6.82;4.20;;;19.10;30.60;;;;;;5052735;28;20092;-84
2022/03/10 08:43:06;;;;;;;7.18;4.20;;;18.90;29.80;;;;;;5052046;28;20495;-81
2022/03/10 08:45:31;;;;;;;6.53;3.80;;;17.70;30.00;;;;;;5051974;28;20017;-81
2022/03/10 08:47:57;;;;;;;10.85;4.00;;;17.10;30.40;;;;;;5052945;28;20036;-83
2022/03/10 08:50:23;;;;;;;6.63;4.00;;;17.10;30.00;;;;;;5053027;28;20384;-82
2022/03/10 08:52:50;;;;;;;8.18;4.60;;;16.10;30.80;;;;;;5052891;28;20029;-82
2022/03/10 08:55:17;;;;;;;6.70;4.03;;;16.00;31.10;;;;;;5052723;28;20021;-84
2022/03/10 08:57:42;;;;;;;15.43;4.40;;;16.40;30.90;;;;;;5051447;28;20075;-82
2022/03/10 09:00:10;;;;;;;8.27;3.83;;;15.70;31.10;;;;;;5052983;28;20049;-81
2022/03/10 09:02:36;;;;;;;7.07;3.97;;;14.80;32.30;;;;;;5051493;28;20029;-84
2022/03/10 09:05:02;;;;;;;6.65;4.00;;;14.20;32.80;;;;;;5051711;28;20021;-83
2022/03/10 09:07:28;;;;;;;6.85;3.92;;;15.70;31.50;;;;;;5051794;28;20108;-85
2022/03/10 09:09:54;;;;;;;6.93;3.92;;;17.20;30.20;;;;;;5054600;28;20117;-83
2022/03/10 09:12:19;;;;;;;7.63;4.13;;;18.20;29.30;;;;;;5055861;28;20027;-84
2022/03/10 09:14:45;;;;;;;9.00;3.95;;;18.30;28.40;;;;;;5055412;28;20025;-82
2022/03/10 09:17:11;;;;;;;8.23;4.72;;;16.60;30.10;;;;;;5055395;28;20037;-81
2022/03/10 09:19:36;;;;;;;8.38;4.43;;;16.80;30.30;;;;;;5057115;28;20033;-85
2022/03/10 09:22:02;;;;;;;7.00;4.50;;;17.40;29.90;;;;;;5057077;28;20039;-84
2022/03/10 09:24:30;;;;;;;7.03;4.13;;;17.00;30.90;;;;;;5056998;28;20423;-83
2022/03/10 09:26:56;;;;;;;7.55;4.45;;;17.30;30.00;;;;;;5055555;28;20028;-84
2022/03/10 09:29:22;;;;;;;6.15;4.20;;;18.00;30.00;;;;;;5056553;28;20033;-84
2022/03/10 09:31:47;;;;;;;7.03;3.95;;;18.80;30.10;;;;;;5055659;28;20087;-86
2022/03/10 09:34:13;;;;;;;7.55;4.40;;;19.90;29.20;;;;;;5055155;28;20029;-81
2022/03/10 09:36:39;;;;;;;6.85;4.40;;;20.80;29.10;;;;;;5055210;28;20131;-84
2022/03/10 09:39:05;;;;;;;8.65;4.30;;;21.10;28.30;;;;;;5055295;28;20188;-84
2022/03/10 09:41:31;;;;;;;7.43;4.50;;;20.80;28.00;;;;;;5056347;28;20027;-84
2022/03/10 09:43:57;;;;;;;10.38;6.10;;;21.00;28.50;;;;;;5056566;28;20047;-82
2022/03/10 09:46:23;;;;;;;7.72;4.93;;;20.90;27.60;;;;;;5055214;28;20020;-82
2022/03/10 09:48:48;;;;;;;7.88;4.80;;;20.70;28.10;;;;;;5054887;28;20456;-83
2022/03/10 09:51:15;;;;;;;8.32;4.88;;;21.70;29.00;;;;;;5056484;28;20548;-84
2022/03/10 09:53:41;;;;;;;6.82;4.45;;;24.00;28.20;;;;;;5055243;28;20038;-85
2022/03/10 09:56:07;;;;;;;8.15;4.60;;;24.50;28.00;;;;;;5056181;28;20021;-85
2022/03/10 09:58:34;;;;;;;7.20;4.70;;;25.20;27.60;;;;;;5055072;28;20037;-83
2022/03/10 10:01:06;;;;;;;8.23;4.95;;;25.60;27.00;;;;;;5056258;28;20029;-82
2022/03/10 10:03:36;;;;;;;7.07;4.55;;;24.40;27.80;;;;;;5055837;28;20025;-83
2022/03/10 10:06:03;;;;;;;8.38;4.47;;;24.40;27.40;;;;;;5054711;28;20083;-83
2022/03/10 10:08:34;;;;;;;8.38;4.70;;;24.70;27.20;;;;;;5054846;28;20021;-82
2022/03/10 10:11:00;;;;;;;9.25;5.80;;;24.40;26.80;;;;;;5054298;28;20029;-82
2022/03/10 10:13:39;;;;;;;7.97;4.53;;;24.40;27.20;;;;;;5055599;28;20021;-81
2022/03/10 10:16:13;;;;;;;8.45;4.63;;;25.30;26.60;;;;;;5054566;28;20025;-82
2022/03/10 10:18:40;;;;;;;6.43;4.47;;;23.20;27.50;;;;;;5053623;28;20033;-82
2022/03/10 10:21:08;;;;;;;9.68;5.10;;;22.60;27.80;;;;;;5053737;28;20416;-82
2022/03/10 10:23:39;;;;;;;8.68;4.55;;;21.30;27.50;;;;;;5054483;28;20025;-81
2022/03/10 10:26:09;;;;;;;7.43;4.88;;;21.30;27.50;;;;;;5054268;28;20487;-82
2022/03/10 10:28:40;;;;;;;;;;;21.20;27.50;;;;;;5055061;28;20029;-82
2022/03/10 10:31:11;;;;;;;7.00;4.70;;;21.90;27.50;;;;;;5055090;28;19912;-82
2022/03/10 10:33:39;;;;;;;6.88;4.13;;;21.90;27.20;;;;;;5054120;28;20498;-80
2022/03/10 10:36:26;;;;;;;6.95;4.05;;;21.50;27.70;;;;;;5053972;28;20049;-82
2022/03/10 10:38:57;;;;;;;6.47;4.15;;;20.40;26.80;;;;;;5054535;28;20531;-83
2022/03/10 10:41:27;;;;;;;6.82;3.80;;;18.30;27.70;;;;;;5054125;28;20550;-83
2022/03/10 10:44:00;;;;;;;10.73;4.90;;;17.80;28.50;;;;;;5053998;28;20029;-81
2022/03/10 10:46:38;;;;;;;7.22;4.30;;;17.50;28.80;;;;;;5053928;28;20033;-83
2022/03/10 10:49:18;;;;;;;7.55;4.00;;;17.80;29.10;;;;;;5055201;28;20021;-86
2022/03/10 10:51:48;;;;;;;9.93;4.13;;;17.70;28.40;;;;;;5054243;28;20053;-84
2022/03/10 10:54:28;;;;;;;6.67;3.90;;;18.10;28.40;;;;;;5053715;28;20104;-84
2022/03/10 10:57:03;;;;;;;8.25;4.03;;;19.10;28.10;;;;;;5053961;28;20301;-82
2022/03/10 10:59:45;;;;;;;6.60;4.15;;;17.90;28.20;;;;;;5015949;27;1788761;-84
2022/03/10 11:02:16;;;;;;;7.80;3.88;;;16.10;29.00;;;;;;5049625;28;20033;-81
2022/03/10 11:04:49;;;;;;;5.75;3.70;;;16.50;29.20;;;;;;5049318;28;20025;-81
2022/03/10 11:07:17;;;;;;;7.05;3.80;;;18.80;28.70;;;;;;5049513;28;20029;-81
2022/03/10 11:09:45;;;;;;;7.05;4.05;;;20.10;27.60;;;;;;5049402;28;20432;-80
2022/03/10 11:12:13;;;;;;;7.47;3.78;;;20.70;27.50;;;;;;5048994;28;20025;-81
2022/03/10 11:14:40;;;;;;;6.32;3.88;;;20.20;27.30;;;;;;5043125;28;20068;-80
2022/03/10 11:17:07;;;;;;;5.43;3.47;;;20.30;27.00;;;;;;5029492;28;20030;-82
2022/03/10 11:19:38;;;;;;;6.45;3.80;;;19.80;27.20;;;;;;5029281;28;20033;-81
2022/03/10 11:22:14;;;;;;;6.55;4.07;;;19.20;27.80;;;;;;5029262;28;20068;-81
2022/03/10 11:25:04;;;;;;;6.20;3.70;;;17.60;28.10;;;;;;5028841;28;20041;-80
2022/03/10 11:27:35;;;;;;;8.57;3.70;;;15.40;29.30;;;;;;5029254;28;20030;-82
2022/03/10 11:30:03;;;;;;;7.20;3.45;;;14.40;30.00;;;;;;5030026;28;20051;-82
2022/03/10 11:32:31;;;;;;;5.90;3.40;;;14.20;29.60;;;;;;5030027;28;20056;-80
2022/03/10 11:35:00;;;;;;;6.65;4.13;;;13.90;29.10;;;;;;5029069;28;20079;-80
2022/03/10 11:37:58;;;;;;;9.02;3.30;;;13.60;29.40;;;;;;5028709;28;20026;-79
2022/03/10 11:43:03;;;;;;;7.03;3.38;;;13.40;29.10;;;;;;5079881;27;1570516;-81
2022/03/10 11:45:33;;;;;;;6.80;4.28;;;13.90;30.00;;;;;;5111402;28;20474;-80
2022/03/10 11:48:23;;;;;;;8.70;4.47;;;13.60;29.30;;;;;;5111179;28;20020;-81
2022/03/10 11:50:49;;;;;;;6.10;3.10;;;13.30;30.80;;;;;;5111006;28;20059;-82
2022/03/10 11:53:15;;;;;;;5.32;3.22;;;13.30;29.30;;;;;;5092729;28;20077;-83
2022/03/10 11:55:51;;;;;;;6.90;3.35;;;13.40;29.30;;;;;;5111087;28;20035;-85
2022/03/10 11:58:31;;;;;;;6.40;3.10;;;13.30;29.70;;;;;;5092773;28;20027;-81
2022/03/10 12:00:57;;;;;;;5.63;3.50;;;13.10;29.80;;;;;;5092747;28;20030;-86
2022/03/10 12:03:46;;;;;;;7.35;3.65;;;13.10;29.20;;;;;;5092719;28;20044;-81
2022/03/10 12:06:17;;;;;;;5.45;3.15;;;13.40;28.70;;;;;;5110857;28;20024;-82
2022/03/10 12:09:02;;;;;;;5.63;3.17;;;13.20;29.90;;;;;;5092573;28;20039;-81
2022/03/10 12:11:47;;;;;;;8.27;4.22;;;13.50;30.00;;;;;;5110641;28;20069;-81
2022/03/10 12:14:26;;;;;;;5.72;3.17;;;13.60;29.10;;;;;;5089256;28;20112;-82
2022/03/10 12:16:52;;;;;;;6.13;3.03;;;13.20;29.70;;;;;;5071898;28;20028;-85
2022/03/10 12:19:18;;;;;;;6.65;3.60;;;13.20;29.50;;;;;;5071530;28;20027;-80
2022/03/10 12:21:44;;;;;;;5.28;3.20;;;13.30;30.00;;;;;;5089673;28;20037;-83
2022/03/10 12:24:12;;;;;;;5.22;3.17;;;13.00;29.00;;;;;;5072325;28;20025;-80
2022/03/10 12:26:40;;;;;;;4.82;3.00;;;12.60;29.30;;;;;;5089948;28;20031;-81
2022/03/10 12:29:08;;;;;;;5.35;3.20;;;12.20;29.20;;;;;;5072061;28;20077;-82
2022/03/10 12:31:36;;;;;;;6.10;2.85;;;11.80;30.70;;;;;;5089973;28;20022;-79
2022/03/10 12:34:06;;;;;;;5.40;3.20;;;12.10;29.10;;;;;;5089303;28;20028;-80
2022/03/10 12:36:31;;;;;;;7.03;3.70;;;12.70;29.80;;;;;;5071361;28;20060;-79
2022/03/10 12:38:59;;;;;;;5.75;3.10;;;12.80;29.70;;;;;;5071583;28;20047;-81
2022/03/10 12:41:43;;;;;;;7.20;2.85;;;12.60;29.70;;;;;;5089078;28;20575;-81
2022/03/10 12:44:11;;;;;;;6.50;2.95;;;13.10;29.10;;;;;;5089504;28;20066;-80
2022/03/10 12:46:39;;;;;;;4.60;2.85;;;13.70;29.10;;;;;;5071399;28;20069;-81
2022/03/10 12:49:29;;;;;;;5.45;3.20;;;14.10;29.00;;;;;;5071400;28;20032;-81
2022/03/10 12:51:57;;;;;;;5.53;3.08;;;14.00;28.50;;;;;;5071034;28;20026;-81